sensor_id;sensor_type;location;lat;lon;timestamp;P1;durP1;ratioP1;P2;durP2;ratioP2
60233;SDS011;49514;43.538;-5.708;2022-08-03T00:01:44;5.72;;;2.70;;
60233;SDS011;49514;43.538;-5.708;2022-08-03T00:04:10;12.73;;;3.00;;
60233;SDS011;49514;43.538;-5.708;2022-08-03T00:06:37;12.85;;;2.83;;
60233;SDS011;49514;43.538;-5.708;2022-08-03T00:09:04;7.13;;;2.88;;
60233;SDS011;49514;43.538;-5.708;2022-08-03T00:11:32;13.02;;;3.53;;
60233;SDS011;49514;43.538;-5.708;2022-08-03T00:13:59;7.30;;;2.47;;
60233;SDS011;49514;43.538;-5.708;2022-08-03T00:16:26;12.10;;;3.10;;
60233;SDS011;49514;43.538;-5.708;2022-08-03T00:18:52;6.88;;;2.83;;
60233;SDS011;49514;43.538;-5.708;2022-08-03T00:21:19;5.85;;;2.80;;
60233;SDS011;49514;43.538;-5.708;2022-08-03T00:23:46;8.80;;;3.22;;
60233;SDS011;49514;43.538;-5.708;2022-08-03T00:26:13;8.45;;;3.08;;
60233;SDS011;49514;43.538;-5.708;2022-08-03T00:28:39;5.63;;;3.63;;
60233;SDS011;49514;43.538;-5.708;2022-08-03T00:31:07;5.78;;;3.20;;
60233;SDS011;49514;43.538;-5.708;2022-08-03T00:33:33;3.80;;;3.10;;
60233;SDS011;49514;43.538;-5.708;2022-08-03T00:36:00;9.50;;;3.70;;
60233;SDS011;49514;43.538;-5.708;2022-08-03T00:38:26;7.38;;;3.28;;
60233;SDS011;49514;43.538;-5.708;2022-08-03T00:40:53;8.63;;;4.10;;
60233;SDS011;49514;43.538;-5.708;2022-08-03T00:43:23;7.20;;;3.75;;
60233;SDS011;49514;43.538;-5.708;2022-08-03T00:45:51;6.97;;;3.53;;
60233;SDS011;49514;43.538;-5.708;2022-08-03T00:48:19;8.75;;;3.65;;
60233;SDS011;49514;43.538;-5.708;2022-08-03T00:50:46;6.10;;;3.35;;
60233;SDS011;49514;43.538;-5.708;2022-08-03T00:53:13;8.23;;;3.90;;
60233;SDS011;49514;43.538;-5.708;2022-08-03T00:55:40;8.30;;;3.42;;
60233;SDS011;49514;43.538;-5.708;2022-08-03T00:58:07;6.78;;;3.22;;
60233;SDS011;49514;43.538;-5.708;2022-08-03T01:00:37;8.00;;;3.30;;
60233;SDS011;49514;43.538;-5.708;2022-08-03T01:03:09;7.22;;;3.20;;
60233;SDS011;49514;43.538;-5.708;2022-08-03T01:08:37;7.32;;;3.13;;
60233;SDS011;49514;43.538;-5.708;2022-08-03T01:11:16;4.88;;;2.90;;
60233;SDS011;49514;43.538;-5.708;2022-08-03T01:30:28;8.38;;;3.22;;
60233;SDS011;49514;43.538;-5.708;2022-08-03T01:33:04;9.60;;;3.88;;
60233;SDS011;49514;43.538;-5.708;2022-08-03T01:35:43;5.13;;;3.00;;
60233;SDS011;49514;43.538;-5.708;2022-08-03T01:38:19;8.15;;;3.50;;
60233;SDS011;49514;43.538;-5.708;2022-08-03T01:40:51;8.70;;;3.97;;
60233;SDS011;49514;43.538;-5.708;2022-08-03T01:43:25;15.48;;;4.40;;
60233;SDS011;49514;43.538;-5.708;2022-08-03T01:45:54;10.57;;;4.03;;
60233;SDS011;49514;43.538;-5.708;2022-08-03T01:48:22;9.45;;;3.67;;
60233;SDS011;49514;43.538;-5.708;2022-08-03T01:50:50;8.25;;;3.53;;
60233;SDS011;49514;43.538;-5.708;2022-08-03T01:53:19;9.35;;;3.47;;
60233;SDS011;49514;43.538;-5.708;2022-08-03T01:55:47;10.50;;;3.88;;
60233;SDS011;49514;43.538;-5.708;2022-08-03T01:58:17;8.32;;;3.53;;
60233;SDS011;49514;43.538;-5.708;2022-08-03T02:00:47;9.32;;;3.70;;
60233;SDS011;49514;43.538;-5.708;2022-08-03T02:03:15;9.40;;;3.03;;
60233;SDS011;49514;43.538;-5.708;2022-08-03T02:05:44;11.40;;;3.78;;
60233;SDS011;49514;43.538;-5.708;2022-08-03T02:08:12;12.45;;;4.03;;
60233;SDS011;49514;43.538;-5.708;2022-08-03T02:10:40;9.40;;;3.42;;
60233;SDS011;49514;43.538;-5.708;2022-08-03T02:13:11;9.63;;;3.45;;
60233;SDS011;49514;43.538;-5.708;2022-08-03T02:15:39;12.50;;;3.33;;
60233;SDS011;49514;43.538;-5.708;2022-08-03T02:18:07;17.95;;;3.47;;
60233;SDS011;49514;43.538;-5.708;2022-08-03T02:20:35;8.02;;;3.70;;
60233;SDS011;49514;43.538;-5.708;2022-08-03T02:23:03;10.18;;;3.15;;
60233;SDS011;49514;43.538;-5.708;2022-08-03T02:25:32;11.38;;;3.40;;
60233;SDS011;49514;43.538;-5.708;2022-08-03T02:28:08;12.20;;;2.97;;
60233;SDS011;49514;43.538;-5.708;2022-08-03T02:30:37;6.13;;;2.78;;
60233;SDS011;49514;43.538;-5.708;2022-08-03T02:33:10;11.95;;;3.42;;
60233;SDS011;49514;43.538;-5.708;2022-08-03T02:35:42;7.00;;;3.00;;
60233;SDS011;49514;43.538;-5.708;2022-08-03T02:38:10;8.57;;;3.15;;
60233;SDS011;49514;43.538;-5.708;2022-08-03T02:40:40;9.07;;;2.80;;
60233;SDS011;49514;43.538;-5.708;2022-08-03T02:43:09;11.32;;;3.42;;
60233;SDS011;49514;43.538;-5.708;2022-08-03T02:45:42;10.00;;;3.33;;
60233;SDS011;49514;43.538;-5.708;2022-08-03T02:48:11;7.15;;;2.85;;
60233;SDS011;49514;43.538;-5.708;2022-08-03T02:50:43;8.30;;;2.95;;
60233;SDS011;49514;43.538;-5.708;2022-08-03T02:53:10;7.50;;;2.97;;
60233;SDS011;49514;43.538;-5.708;2022-08-03T02:55:38;8.63;;;3.30;;
60233;SDS011;49514;43.538;-5.708;2022-08-03T02:58:07;12.80;;;3.50;;
60233;SDS011;49514;43.538;-5.708;2022-08-03T03:03:28;9.68;;;3.47;;
60233;SDS011;49514;43.538;-5.708;2022-08-03T03:05:55;7.32;;;3.50;;
60233;SDS011;49514;43.538;-5.708;2022-08-03T03:08:22;5.88;;;3.00;;
60233;SDS011;49514;43.538;-5.708;2022-08-03T03:10:51;8.43;;;3.35;;
60233;SDS011;49514;43.538;-5.708;2022-08-03T03:13:20;10.40;;;3.40;;
60233;SDS011;49514;43.538;-5.708;2022-08-03T03:15:47;8.40;;;3.30;;
60233;SDS011;49514;43.538;-5.708;2022-08-03T03:18:15;9.88;;;3.85;;
60233;SDS011;49514;43.538;-5.708;2022-08-03T03:20:42;10.20;;;3.45;;
60233;SDS011;49514;43.538;-5.708;2022-08-03T03:23:10;13.60;;;3.67;;
60233;SDS011;49514;43.538;-5.708;2022-08-03T03:25:38;8.77;;;3.58;;
60233;SDS011;49514;43.538;-5.708;2022-08-03T03:28:05;8.02;;;3.65;;
60233;SDS011;49514;43.538;-5.708;2022-08-03T03:30:32;7.55;;;3.63;;
60233;SDS011;49514;43.538;-5.708;2022-08-03T03:32:59;6.70;;;3.40;;
60233;SDS011;49514;43.538;-5.708;2022-08-03T03:35:27;10.35;;;3.65;;
60233;SDS011;49514;43.538;-5.708;2022-08-03T03:37:54;9.60;;;3.92;;
60233;SDS011;49514;43.538;-5.708;2022-08-03T03:40:21;7.55;;;3.08;;
60233;SDS011;49514;43.538;-5.708;2022-08-03T03:42:49;16.13;;;4.18;;
60233;SDS011;49514;43.538;-5.708;2022-08-03T03:45:16;7.47;;;3.20;;
60233;SDS011;49514;43.538;-5.708;2022-08-03T03:47:43;6.32;;;3.10;;
60233;SDS011;49514;43.538;-5.708;2022-08-03T03:50:10;7.85;;;3.30;;
60233;SDS011;49514;43.538;-5.708;2022-08-03T03:52:37;9.98;;;3.33;;
60233;SDS011;49514;43.538;-5.708;2022-08-03T03:55:04;12.30;;;3.35;;
60233;SDS011;49514;43.538;-5.708;2022-08-03T03:57:31;10.00;;;3.80;;
60233;SDS011;49514;43.538;-5.708;2022-08-03T03:59:59;10.35;;;3.88;;
60233;SDS011;49514;43.538;-5.708;2022-08-03T04:02:26;7.80;;;3.50;;
60233;SDS011;49514;43.538;-5.708;2022-08-03T04:04:52;9.88;;;3.17;;
60233;SDS011;49514;43.538;-5.708;2022-08-03T04:07:41;7.97;;;3.20;;
60233;SDS011;49514;43.538;-5.708;2022-08-03T04:10:35;10.63;;;3.45;;
60233;SDS011;49514;43.538;-5.708;2022-08-03T04:13:23;8.82;;;3.78;;
60233;SDS011;49514;43.538;-5.708;2022-08-03T04:15:59;11.52;;;3.80;;
60233;SDS011;49514;43.538;-5.708;2022-08-03T04:18:28;11.70;;;3.72;;
60233;SDS011;49514;43.538;-5.708;2022-08-03T04:20:57;8.20;;;3.65;;
60233;SDS011;49514;43.538;-5.708;2022-08-03T04:23:28;12.38;;;4.13;;
60233;SDS011;49514;43.538;-5.708;2022-08-03T04:26:00;11.13;;;3.60;;
60233;SDS011;49514;43.538;-5.708;2022-08-03T04:28:28;11.63;;;4.38;;
60233;SDS011;49514;43.538;-5.708;2022-08-03T04:31:00;9.77;;;3.90;;
60233;SDS011;49514;43.538;-5.708;2022-08-03T04:33:30;12.05;;;3.92;;
60233;SDS011;49514;43.538;-5.708;2022-08-03T04:35:59;9.57;;;4.07;;
60233;SDS011;49514;43.538;-5.708;2022-08-03T04:38:29;14.60;;;4.80;;
60233;SDS011;49514;43.538;-5.708;2022-08-03T04:41:00;10.65;;;4.35;;
60233;SDS011;49514;43.538;-5.708;2022-08-03T04:43:27;13.13;;;4.90;;
60233;SDS011;49514;43.538;-5.708;2022-08-03T04:45:57;12.23;;;4.93;;
60233;SDS011;49514;43.538;-5.708;2022-08-03T04:48:24;13.13;;;5.38;;
60233;SDS011;49514;43.538;-5.708;2022-08-03T04:50:52;13.20;;;5.32;;
60233;SDS011;49514;43.538;-5.708;2022-08-03T04:53:19;12.07;;;6.10;;
60233;SDS011;49514;43.538;-5.708;2022-08-03T04:55:46;13.18;;;5.72;;
60233;SDS011;49514;43.538;-5.708;2022-08-03T04:58:13;14.10;;;6.13;;
60233;SDS011;49514;43.538;-5.708;2022-08-03T05:00:39;15.02;;;6.13;;
60233;SDS011;49514;43.538;-5.708;2022-08-03T05:03:07;10.48;;;5.40;;
60233;SDS011;49514;43.538;-5.708;2022-08-03T05:05:33;15.85;;;5.53;;
60233;SDS011;49514;43.538;-5.708;2022-08-03T05:08:00;14.15;;;6.18;;
60233;SDS011;49514;43.538;-5.708;2022-08-03T05:10:27;11.32;;;5.07;;
60233;SDS011;49514;43.538;-5.708;2022-08-03T05:12:54;13.50;;;5.80;;
60233;SDS011;49514;43.538;-5.708;2022-08-03T05:15:20;9.02;;;5.07;;
60233;SDS011;49514;43.538;-5.708;2022-08-03T05:17:47;12.98;;;5.45;;
60233;SDS011;49514;43.538;-5.708;2022-08-03T05:20:14;10.18;;;5.45;;
60233;SDS011;49514;43.538;-5.708;2022-08-03T05:22:40;10.45;;;5.47;;
60233;SDS011;49514;43.538;-5.708;2022-08-03T05:25:07;11.70;;;5.40;;
60233;SDS011;49514;43.538;-5.708;2022-08-03T05:27:34;12.77;;;6.15;;
60233;SDS011;49514;43.538;-5.708;2022-08-03T05:30:01;10.82;;;5.50;;
60233;SDS011;49514;43.538;-5.708;2022-08-03T05:32:28;10.23;;;5.20;;
60233;SDS011;49514;43.538;-5.708;2022-08-03T05:34:54;11.80;;;5.32;;
60233;SDS011;49514;43.538;-5.708;2022-08-03T05:37:21;11.77;;;5.38;;
60233;SDS011;49514;43.538;-5.708;2022-08-03T05:39:48;12.20;;;5.80;;
60233;SDS011;49514;43.538;-5.708;2022-08-03T05:42:14;10.52;;;5.20;;
60233;SDS011;49514;43.538;-5.708;2022-08-03T05:44:41;8.85;;;4.95;;
60233;SDS011;49514;43.538;-5.708;2022-08-03T05:47:08;9.00;;;5.20;;
60233;SDS011;49514;43.538;-5.708;2022-08-03T05:49:35;9.88;;;5.63;;
60233;SDS011;49514;43.538;-5.708;2022-08-03T05:52:02;7.78;;;5.75;;
60233;SDS011;49514;43.538;-5.708;2022-08-03T05:54:29;10.60;;;5.28;;
60233;SDS011;49514;43.538;-5.708;2022-08-03T05:56:56;10.93;;;5.88;;
60233;SDS011;49514;43.538;-5.708;2022-08-03T05:59:22;7.78;;;5.47;;
60233;SDS011;49514;43.538;-5.708;2022-08-03T06:01:50;11.52;;;5.55;;
60233;SDS011;49514;43.538;-5.708;2022-08-03T06:04:17;11.88;;;5.50;;
60233;SDS011;49514;43.538;-5.708;2022-08-03T06:06:44;7.65;;;5.18;;
60233;SDS011;49514;43.538;-5.708;2022-08-03T06:09:11;10.15;;;5.47;;
60233;SDS011;49514;43.538;-5.708;2022-08-03T06:11:38;10.27;;;5.40;;
60233;SDS011;49514;43.538;-5.708;2022-08-03T06:14:06;9.43;;;4.50;;
60233;SDS011;49514;43.538;-5.708;2022-08-03T06:16:33;9.63;;;5.20;;
60233;SDS011;49514;43.538;-5.708;2022-08-03T06:19:00;7.78;;;4.55;;
60233;SDS011;49514;43.538;-5.708;2022-08-03T06:21:27;8.98;;;5.15;;
60233;SDS011;49514;43.538;-5.708;2022-08-03T06:23:53;9.73;;;4.45;;
60233;SDS011;49514;43.538;-5.708;2022-08-03T06:26:20;10.73;;;4.90;;
60233;SDS011;49514;43.538;-5.708;2022-08-03T06:28:48;13.80;;;4.57;;
60233;SDS011;49514;43.538;-5.708;2022-08-03T06:31:14;11.95;;;4.82;;
60233;SDS011;49514;43.538;-5.708;2022-08-03T06:33:41;9.70;;;5.20;;
60233;SDS011;49514;43.538;-5.708;2022-08-03T06:36:08;7.55;;;4.55;;
60233;SDS011;49514;43.538;-5.708;2022-08-03T06:38:34;9.82;;;4.68;;
60233;SDS011;49514;43.538;-5.708;2022-08-03T06:41:01;10.65;;;4.85;;
60233;SDS011;49514;43.538;-5.708;2022-08-03T06:43:28;12.38;;;5.45;;
60233;SDS011;49514;43.538;-5.708;2022-08-03T06:45:54;9.05;;;4.80;;
60233;SDS011;49514;43.538;-5.708;2022-08-03T06:48:21;9.00;;;4.72;;
60233;SDS011;49514;43.538;-5.708;2022-08-03T06:50:47;8.63;;;4.82;;
60233;SDS011;49514;43.538;-5.708;2022-08-03T06:53:14;7.18;;;4.10;;
60233;SDS011;49514;43.538;-5.708;2022-08-03T06:55:41;8.88;;;4.40;;
60233;SDS011;49514;43.538;-5.708;2022-08-03T06:58:07;9.52;;;5.40;;
60233;SDS011;49514;43.538;-5.708;2022-08-03T07:00:34;9.05;;;6.10;;
60233;SDS011;49514;43.538;-5.708;2022-08-03T07:03:01;12.57;;;6.10;;
60233;SDS011;49514;43.538;-5.708;2022-08-03T07:05:27;15.73;;;8.38;;
60233;SDS011;49514;43.538;-5.708;2022-08-03T07:07:55;10.65;;;6.55;;
60233;SDS011;49514;43.538;-5.708;2022-08-03T07:10:24;11.80;;;7.70;;
60233;SDS011;49514;43.538;-5.708;2022-08-03T07:12:51;14.20;;;7.85;;
60233;SDS011;49514;43.538;-5.708;2022-08-03T07:15:17;11.07;;;6.90;;
60233;SDS011;49514;43.538;-5.708;2022-08-03T07:17:44;12.43;;;7.97;;
60233;SDS011;49514;43.538;-5.708;2022-08-03T07:20:11;10.93;;;7.38;;
60233;SDS011;49514;43.538;-5.708;2022-08-03T07:22:40;12.02;;;6.05;;
60233;SDS011;49514;43.538;-5.708;2022-08-03T07:25:06;11.82;;;6.82;;
60233;SDS011;49514;43.538;-5.708;2022-08-03T07:27:34;10.68;;;6.05;;
60233;SDS011;49514;43.538;-5.708;2022-08-03T07:30:03;10.38;;;5.70;;
60233;SDS011;49514;43.538;-5.708;2022-08-03T07:32:32;11.18;;;6.03;;
60233;SDS011;49514;43.538;-5.708;2022-08-03T07:34:59;11.48;;;6.47;;
60233;SDS011;49514;43.538;-5.708;2022-08-03T07:37:26;14.40;;;6.30;;
60233;SDS011;49514;43.538;-5.708;2022-08-03T07:39:52;11.40;;;6.50;;
60233;SDS011;49514;43.538;-5.708;2022-08-03T07:42:19;8.85;;;5.30;;
60233;SDS011;49514;43.538;-5.708;2022-08-03T07:44:46;13.02;;;5.13;;
60233;SDS011;49514;43.538;-5.708;2022-08-03T07:47:16;9.07;;;5.18;;
60233;SDS011;49514;43.538;-5.708;2022-08-03T07:49:54;10.38;;;5.35;;
60233;SDS011;49514;43.538;-5.708;2022-08-03T07:52:21;14.25;;;5.88;;
60233;SDS011;49514;43.538;-5.708;2022-08-03T07:55:06;15.77;;;6.20;;
60233;SDS011;49514;43.538;-5.708;2022-08-03T07:57:33;9.88;;;4.70;;
60233;SDS011;49514;43.538;-5.708;2022-08-03T08:00:01;21.05;;;5.97;;
60233;SDS011;49514;43.538;-5.708;2022-08-03T21:21:21;7.68;;;3.03;;
60233;SDS011;49514;43.538;-5.708;2022-08-03T21:23:52;7.37;;;2.50;;
60233;SDS011;49514;43.538;-5.708;2022-08-03T21:26:21;10.52;;;2.70;;
60233;SDS011;49514;43.538;-5.708;2022-08-03T21:28:51;5.97;;;2.00;;
60233;SDS011;49514;43.538;-5.708;2022-08-03T21:31:22;6.30;;;2.03;;
60233;SDS011;49514;43.538;-5.708;2022-08-03T21:33:49;9.20;;;2.00;;
60233;SDS011;49514;43.538;-5.708;2022-08-03T21:36:33;7.63;;;2.00;;
60233;SDS011;49514;43.538;-5.708;2022-08-03T21:39:02;8.13;;;2.00;;
60233;SDS011;49514;43.538;-5.708;2022-08-03T21:41:32;6.93;;;1.73;;
60233;SDS011;49514;43.538;-5.708;2022-08-03T21:44:00;6.93;;;1.67;;
60233;SDS011;49514;43.538;-5.708;2022-08-03T21:46:34;7.32;;;1.80;;
60233;SDS011;49514;43.538;-5.708;2022-08-03T21:49:07;6.13;;;1.90;;
60233;SDS011;49514;43.538;-5.708;2022-08-03T21:51:36;6.75;;;1.60;;
60233;SDS011;49514;43.538;-5.708;2022-08-03T21:54:04;7.40;;;1.90;;
60233;SDS011;49514;43.538;-5.708;2022-08-03T21:56:36;6.45;;;1.73;;
60233;SDS011;49514;43.538;-5.708;2022-08-03T21:59:12;6.30;;;1.67;;
60233;SDS011;49514;43.538;-5.708;2022-08-03T22:01:43;8.23;;;1.90;;
60233;SDS011;49514;43.538;-5.708;2022-08-03T22:04:13;8.20;;;2.20;;
60233;SDS011;49514;43.538;-5.708;2022-08-03T22:06:43;8.00;;;2.00;;
60233;SDS011;49514;43.538;-5.708;2022-08-03T22:09:09;5.80;;;1.83;;
60233;SDS011;49514;43.538;-5.708;2022-08-03T22:11:37;5.90;;;1.80;;
60233;SDS011;49514;43.538;-5.708;2022-08-03T22:14:04;8.02;;;2.20;;
60233;SDS011;49514;43.538;-5.708;2022-08-03T22:16:31;6.65;;;1.88;;
60233;SDS011;49514;43.538;-5.708;2022-08-03T22:18:58;7.13;;;2.10;;
60233;SDS011;49514;43.538;-5.708;2022-08-03T22:21:28;6.57;;;2.00;;
60233;SDS011;49514;43.538;-5.708;2022-08-03T22:23:58;6.60;;;1.75;;
60233;SDS011;49514;43.538;-5.708;2022-08-03T22:26:26;8.25;;;1.98;;
60233;SDS011;49514;43.538;-5.708;2022-08-03T22:28:55;9.48;;;2.20;;
60233;SDS011;49514;43.538;-5.708;2022-08-03T22:31:23;7.53;;;1.98;;
60233;SDS011;49514;43.538;-5.708;2022-08-03T22:33:51;7.78;;;1.80;;
60233;SDS011;49514;43.538;-5.708;2022-08-03T22:36:19;8.33;;;1.80;;
60233;SDS011;49514;43.538;-5.708;2022-08-03T22:38:49;8.32;;;2.00;;
60233;SDS011;49514;43.538;-5.708;2022-08-03T22:41:18;10.30;;;1.90;;
60233;SDS011;49514;43.538;-5.708;2022-08-03T22:43:45;9.90;;;2.25;;
60233;SDS011;49514;43.538;-5.708;2022-08-03T22:46:14;7.47;;;1.80;;
60233;SDS011;49514;43.538;-5.708;2022-08-03T22:48:45;9.75;;;2.13;;
60233;SDS011;49514;43.538;-5.708;2022-08-03T22:51:13;9.20;;;1.85;;
60233;SDS011;49514;43.538;-5.708;2022-08-03T22:53:41;10.50;;;2.15;;
60233;SDS011;49514;43.538;-5.708;2022-08-03T22:56:11;4.40;;;1.60;;
60233;SDS011;49514;43.538;-5.708;2022-08-03T22:58:38;6.32;;;1.60;;
60233;SDS011;49514;43.538;-5.708;2022-08-03T23:01:07;7.45;;;1.90;;
60233;SDS011;49514;43.538;-5.708;2022-08-03T23:03:37;8.10;;;1.90;;
60233;SDS011;49514;43.538;-5.708;2022-08-03T23:06:07;6.78;;;1.73;;
60233;SDS011;49514;43.538;-5.708;2022-08-03T23:08:34;5.28;;;1.58;;
60233;SDS011;49514;43.538;-5.708;2022-08-03T23:11:05;5.72;;;1.83;;
60233;SDS011;49514;43.538;-5.708;2022-08-03T23:13:35;6.55;;;1.65;;
60233;SDS011;49514;43.538;-5.708;2022-08-03T23:16:04;7.23;;;1.80;;
60233;SDS011;49514;43.538;-5.708;2022-08-03T23:18:35;7.18;;;1.92;;
60233;SDS011;49514;43.538;-5.708;2022-08-03T23:21:06;6.20;;;1.60;;
60233;SDS011;49514;43.538;-5.708;2022-08-03T23:23:34;5.28;;;1.58;;
60233;SDS011;49514;43.538;-5.708;2022-08-03T23:26:04;7.07;;;1.80;;
60233;SDS011;49514;43.538;-5.708;2022-08-03T23:28:31;6.35;;;2.55;;
60233;SDS011;49514;43.538;-5.708;2022-08-03T23:31:00;6.13;;;2.20;;
60233;SDS011;49514;43.538;-5.708;2022-08-03T23:33:28;5.15;;;2.13;;
60233;SDS011;49514;43.538;-5.708;2022-08-03T23:35:56;6.80;;;2.17;;
60233;SDS011;49514;43.538;-5.708;2022-08-03T23:38:27;7.10;;;2.13;;
60233;SDS011;49514;43.538;-5.708;2022-08-03T23:40:56;5.40;;;2.20;;
60233;SDS011;49514;43.538;-5.708;2022-08-03T23:43:31;5.75;;;2.30;;
60233;SDS011;49514;43.538;-5.708;2022-08-03T23:46:03;4.70;;;2.20;;
60233;SDS011;49514;43.538;-5.708;2022-08-03T23:48:32;5.10;;;1.83;;
60233;SDS011;49514;43.538;-5.708;2022-08-03T23:51:01;4.72;;;1.90;;
60233;SDS011;49514;43.538;-5.708;2022-08-03T23:54:02;5.60;;;1.70;;
